sensor_id;sensor_type;location;lat;lon;timestamp;P1;durP1;ratioP1;P2;durP2;ratioP2
56599;SDS011;51832;48.152;11.530;2023-07-31T00:01:11;2.43;;;1.80;;
56599;SDS011;51832;48.152;11.530;2023-07-31T00:06:11;2.33;;;1.97;;
56599;SDS011;51832;48.152;11.530;2023-07-31T00:11:12;3.87;;;1.70;;
56599;SDS011;51832;48.152;11.530;2023-07-31T00:16:12;2.28;;;1.88;;
56599;SDS011;51832;48.152;11.530;2023-07-31T00:21:12;4.13;;;2.00;;
56599;SDS011;51832;48.152;11.530;2023-07-31T00:26:13;3.07;;;1.87;;
56599;SDS011;51832;48.152;11.530;2023-07-31T00:31:13;4.15;;;1.80;;
56599;SDS011;51832;48.152;11.530;2023-07-31T00:36:14;4.32;;;1.90;;
56599;SDS011;51832;48.152;11.530;2023-07-31T00:41:14;2.45;;;1.90;;
56599;SDS011;51832;48.152;11.530;2023-07-31T00:46:14;2.33;;;1.90;;
56599;SDS011;51832;48.152;11.530;2023-07-31T00:51:15;3.10;;;1.95;;
56599;SDS011;51832;48.152;11.530;2023-07-31T00:56:15;1.95;;;1.73;;
56599;SDS011;51832;48.152;11.530;2023-07-31T01:01:16;3.75;;;1.85;;
56599;SDS011;51832;48.152;11.530;2023-07-31T01:11:36;4.35;;;1.90;;
56599;SDS011;51832;48.152;11.530;2023-07-31T01:16:43;3.70;;;1.52;;
56599;SDS011;51832;48.152;11.530;2023-07-31T01:27:06;2.28;;;1.50;;
56599;SDS011;51832;48.152;11.530;2023-07-31T01:32:12;2.80;;;1.77;;
56599;SDS011;51832;48.152;11.530;2023-07-31T01:37:14;1.83;;;1.57;;
56599;SDS011;51832;48.152;11.530;2023-07-31T01:42:15;2.17;;;1.87;;
56599;SDS011;51832;48.152;11.530;2023-07-31T01:47:15;5.43;;;2.07;;
56599;SDS011;51832;48.152;11.530;2023-07-31T01:52:15;2.95;;;1.60;;
56599;SDS011;51832;48.152;11.530;2023-07-31T01:57:16;3.13;;;1.70;;
56599;SDS011;51832;48.152;11.530;2023-07-31T02:02:16;2.97;;;2.03;;
56599;SDS011;51832;48.152;11.530;2023-07-31T02:07:16;2.27;;;1.87;;
56599;SDS011;51832;48.152;11.530;2023-07-31T02:12:17;2.40;;;1.63;;
56599;SDS011;51832;48.152;11.530;2023-07-31T02:17:17;3.67;;;2.00;;
56599;SDS011;51832;48.152;11.530;2023-07-31T02:22:18;3.78;;;2.10;;
56599;SDS011;51832;48.152;11.530;2023-07-31T02:27:18;2.88;;;1.75;;
56599;SDS011;51832;48.152;11.530;2023-07-31T02:32:19;2.22;;;2.00;;
56599;SDS011;51832;48.152;11.530;2023-07-31T02:37:19;4.28;;;2.42;;
56599;SDS011;51832;48.152;11.530;2023-07-31T02:42:19;4.83;;;2.30;;
56599;SDS011;51832;48.152;11.530;2023-07-31T02:47:20;3.08;;;2.00;;
56599;SDS011;51832;48.152;11.530;2023-07-31T02:52:20;4.10;;;2.30;;
56599;SDS011;51832;48.152;11.530;2023-07-31T02:57:21;2.70;;;1.60;;
56599;SDS011;51832;48.152;11.530;2023-07-31T03:02:21;3.92;;;1.90;;
56599;SDS011;51832;48.152;11.530;2023-07-31T03:07:21;2.97;;;2.15;;
56599;SDS011;51832;48.152;11.530;2023-07-31T03:12:22;2.67;;;1.90;;
56599;SDS011;51832;48.152;11.530;2023-07-31T03:17:22;3.00;;;2.00;;
56599;SDS011;51832;48.152;11.530;2023-07-31T03:22:23;2.67;;;2.13;;
56599;SDS011;51832;48.152;11.530;2023-07-31T03:27:23;2.42;;;2.17;;
56599;SDS011;51832;48.152;11.530;2023-07-31T03:32:24;3.28;;;2.20;;
56599;SDS011;51832;48.152;11.530;2023-07-31T03:37:24;2.53;;;2.20;;
56599;SDS011;51832;48.152;11.530;2023-07-31T03:42:25;4.05;;;2.42;;
56599;SDS011;51832;48.152;11.530;2023-07-31T03:47:25;4.47;;;2.58;;
56599;SDS011;51832;48.152;11.530;2023-07-31T03:52:26;3.67;;;2.33;;
56599;SDS011;51832;48.152;11.530;2023-07-31T03:57:26;2.90;;;2.30;;
56599;SDS011;51832;48.152;11.530;2023-07-31T04:02:27;3.22;;;2.17;;
56599;SDS011;51832;48.152;11.530;2023-07-31T04:07:27;2.75;;;2.22;;
56599;SDS011;51832;48.152;11.530;2023-07-31T04:12:28;4.17;;;2.70;;
56599;SDS011;51832;48.152;11.530;2023-07-31T04:17:28;3.75;;;2.67;;
56599;SDS011;51832;48.152;11.530;2023-07-31T04:22:28;2.63;;;1.93;;
56599;SDS011;51832;48.152;11.530;2023-07-31T04:27:29;4.05;;;2.13;;
56599;SDS011;51832;48.152;11.530;2023-07-31T04:32:29;2.58;;;2.10;;
56599;SDS011;51832;48.152;11.530;2023-07-31T04:37:30;4.63;;;2.50;;
56599;SDS011;51832;48.152;11.530;2023-07-31T04:42:30;5.38;;;2.45;;
56599;SDS011;51832;48.152;11.530;2023-07-31T04:47:31;2.87;;;2.30;;
56599;SDS011;51832;48.152;11.530;2023-07-31T04:52:31;2.80;;;2.20;;
56599;SDS011;51832;48.152;11.530;2023-07-31T04:57:31;4.85;;;2.47;;
56599;SDS011;51832;48.152;11.530;2023-07-31T05:02:32;3.75;;;2.38;;
56599;SDS011;51832;48.152;11.530;2023-07-31T05:07:32;3.13;;;2.60;;
56599;SDS011;51832;48.152;11.530;2023-07-31T05:12:33;3.72;;;2.38;;
56599;SDS011;51832;48.152;11.530;2023-07-31T05:17:33;4.00;;;2.60;;
56599;SDS011;51832;48.152;11.530;2023-07-31T05:22:33;3.33;;;2.30;;
56599;SDS011;51832;48.152;11.530;2023-07-31T05:27:34;2.33;;;2.13;;
56599;SDS011;51832;48.152;11.530;2023-07-31T05:32:34;4.50;;;2.47;;
56599;SDS011;51832;48.152;11.530;2023-07-31T05:37:35;2.27;;;2.07;;
56599;SDS011;51832;48.152;11.530;2023-07-31T05:42:35;5.03;;;2.53;;
56599;SDS011;51832;48.152;11.530;2023-07-31T05:47:37;2.37;;;1.77;;
56599;SDS011;51832;48.152;11.530;2023-07-31T05:52:38;5.15;;;2.45;;
56599;SDS011;51832;48.152;11.530;2023-07-31T05:57:38;3.03;;;2.38;;
56599;SDS011;51832;48.152;11.530;2023-07-31T06:02:39;3.83;;;1.90;;
56599;SDS011;51832;48.152;11.530;2023-07-31T06:07:40;4.13;;;2.03;;
56599;SDS011;51832;48.152;11.530;2023-07-31T06:12:40;4.03;;;2.13;;
56599;SDS011;51832;48.152;11.530;2023-07-31T06:17:41;3.58;;;2.10;;
56599;SDS011;51832;48.152;11.530;2023-07-31T06:22:42;3.38;;;1.92;;
56599;SDS011;51832;48.152;11.530;2023-07-31T06:27:42;3.03;;;2.28;;
56599;SDS011;51832;48.152;11.530;2023-07-31T06:32:43;3.25;;;2.03;;
56599;SDS011;51832;48.152;11.530;2023-07-31T06:37:43;3.55;;;1.75;;
56599;SDS011;51832;48.152;11.530;2023-07-31T06:42:44;6.47;;;2.00;;
56599;SDS011;51832;48.152;11.530;2023-07-31T06:47:45;4.47;;;2.03;;
56599;SDS011;51832;48.152;11.530;2023-07-31T06:52:45;3.28;;;2.28;;
56599;SDS011;51832;48.152;11.530;2023-07-31T06:57:46;2.97;;;2.38;;
56599;SDS011;51832;48.152;11.530;2023-07-31T07:02:47;3.88;;;2.22;;
56599;SDS011;51832;48.152;11.530;2023-07-31T07:07:49;3.05;;;1.90;;
56599;SDS011;51832;48.152;11.530;2023-07-31T07:12:51;3.03;;;2.17;;
56599;SDS011;51832;48.152;11.530;2023-07-31T07:17:52;3.13;;;2.10;;
56599;SDS011;51832;48.152;11.530;2023-07-31T07:22:53;3.20;;;1.80;;
56599;SDS011;51832;48.152;11.530;2023-07-31T07:27:53;5.40;;;2.13;;
56599;SDS011;51832;48.152;11.530;2023-07-31T07:32:54;3.38;;;2.47;;
56599;SDS011;51832;48.152;11.530;2023-07-31T07:37:55;2.78;;;1.77;;
56599;SDS011;51832;48.152;11.530;2023-07-31T07:42:55;2.10;;;1.90;;
56599;SDS011;51832;48.152;11.530;2023-07-31T07:47:56;2.28;;;2.08;;
56599;SDS011;51832;48.152;11.530;2023-07-31T07:52:56;2.22;;;2.03;;
56599;SDS011;51832;48.152;11.530;2023-07-31T07:57:57;4.47;;;2.40;;
56599;SDS011;51832;48.152;11.530;2023-07-31T08:02:58;4.47;;;1.90;;
56599;SDS011;51832;48.152;11.530;2023-07-31T08:07:58;2.72;;;1.90;;
56599;SDS011;51832;48.152;11.530;2023-07-31T08:12:59;2.95;;;1.77;;
56599;SDS011;51832;48.152;11.530;2023-07-31T08:17:59;4.05;;;2.80;;
56599;SDS011;51832;48.152;11.530;2023-07-31T08:23:00;4.55;;;2.10;;
56599;SDS011;51832;48.152;11.530;2023-07-31T08:28:01;3.60;;;2.55;;
56599;SDS011;51832;48.152;11.530;2023-07-31T08:33:02;2.45;;;1.92;;
56599;SDS011;51832;48.152;11.530;2023-07-31T08:38:02;3.10;;;1.70;;
56599;SDS011;51832;48.152;11.530;2023-07-31T08:43:03;2.60;;;1.47;;
56599;SDS011;51832;48.152;11.530;2023-07-31T08:48:03;6.13;;;2.00;;
56599;SDS011;51832;48.152;11.530;2023-07-31T08:53:04;2.65;;;2.00;;
56599;SDS011;51832;48.152;11.530;2023-07-31T08:58:05;3.22;;;1.73;;
56599;SDS011;51832;48.152;11.530;2023-07-31T09:03:08;2.47;;;1.45;;
56599;SDS011;51832;48.152;11.530;2023-07-31T09:08:12;4.20;;;2.00;;
56599;SDS011;51832;48.152;11.530;2023-07-31T09:13:15;2.65;;;1.70;;
56599;SDS011;51832;48.152;11.530;2023-07-31T09:18:16;2.95;;;1.90;;
56599;SDS011;51832;48.152;11.530;2023-07-31T09:23:19;4.25;;;1.73;;
56599;SDS011;51832;48.152;11.530;2023-07-31T09:28:21;3.45;;;1.90;;
56599;SDS011;51832;48.152;11.530;2023-07-31T09:33:31;2.97;;;1.80;;
56599;SDS011;51832;48.152;11.530;2023-07-31T09:38:32;2.38;;;1.73;;
56599;SDS011;51832;48.152;11.530;2023-07-31T09:43:32;3.95;;;1.80;;
56599;SDS011;51832;48.152;11.530;2023-07-31T09:48:38;3.40;;;1.73;;
56599;SDS011;51832;48.152;11.530;2023-07-31T09:53:39;2.28;;;1.75;;
56599;SDS011;51832;48.152;11.530;2023-07-31T09:58:39;4.05;;;1.80;;
56599;SDS011;51832;48.152;11.530;2023-07-31T10:03:40;2.92;;;1.80;;
56599;SDS011;51832;48.152;11.530;2023-07-31T10:08:42;2.83;;;1.83;;
56599;SDS011;51832;48.152;11.530;2023-07-31T10:13:46;3.42;;;2.15;;
56599;SDS011;51832;48.152;11.530;2023-07-31T10:18:46;2.92;;;2.22;;
56599;SDS011;51832;48.152;11.530;2023-07-31T10:23:48;3.40;;;1.90;;
56599;SDS011;51832;48.152;11.530;2023-07-31T10:28:50;2.70;;;1.98;;
56599;SDS011;51832;48.152;11.530;2023-07-31T10:33:53;6.20;;;2.55;;
56599;SDS011;51832;48.152;11.530;2023-07-31T10:38:55;3.63;;;2.10;;
56599;SDS011;51832;48.152;11.530;2023-07-31T10:43:59;4.22;;;2.00;;
56599;SDS011;51832;48.152;11.530;2023-07-31T10:49:01;3.20;;;1.80;;
56599;SDS011;51832;48.152;11.530;2023-07-31T10:54:12;3.70;;;1.70;;
56599;SDS011;51832;48.152;11.530;2023-07-31T10:59:18;3.45;;;2.00;;
56599;SDS011;51832;48.152;11.530;2023-07-31T11:04:24;3.25;;;1.80;;
56599;SDS011;51832;48.152;11.530;2023-07-31T11:09:34;4.05;;;1.98;;
56599;SDS011;51832;48.152;11.530;2023-07-31T11:14:35;3.47;;;2.58;;
56599;SDS011;51832;48.152;11.530;2023-07-31T11:19:35;3.17;;;1.90;;
56599;SDS011;51832;48.152;11.530;2023-07-31T11:24:37;3.00;;;1.75;;
56599;SDS011;51832;48.152;11.530;2023-07-31T11:29:38;12.02;;;2.05;;
56599;SDS011;51832;48.152;11.530;2023-07-31T11:34:54;4.18;;;2.10;;
56599;SDS011;51832;48.152;11.530;2023-07-31T11:40:01;3.22;;;2.33;;
56599;SDS011;51832;48.152;11.530;2023-07-31T11:45:02;2.97;;;1.85;;
56599;SDS011;51832;48.152;11.530;2023-07-31T11:50:10;2.72;;;2.33;;
56599;SDS011;51832;48.152;11.530;2023-07-31T11:55:12;2.45;;;1.80;;
56599;SDS011;51832;48.152;11.530;2023-07-31T12:00:13;3.10;;;1.98;;
56599;SDS011;51832;48.152;11.530;2023-07-31T12:05:15;2.67;;;1.85;;
56599;SDS011;51832;48.152;11.530;2023-07-31T12:10:49;3.40;;;1.98;;
56599;SDS011;51832;48.152;11.530;2023-07-31T12:15:43;2.10;;;1.80;;
56599;SDS011;51832;48.152;11.530;2023-07-31T12:20:45;4.82;;;2.28;;
56599;SDS011;51832;48.152;11.530;2023-07-31T12:26:07;3.45;;;1.95;;
56599;SDS011;51832;48.152;11.530;2023-07-31T12:31:13;2.88;;;2.00;;
56599;SDS011;51832;48.152;11.530;2023-07-31T12:36:23;3.03;;;1.75;;
56599;SDS011;51832;48.152;11.530;2023-07-31T12:41:24;4.05;;;1.80;;
56599;SDS011;51832;48.152;11.530;2023-07-31T12:46:24;3.37;;;2.00;;
56599;SDS011;51832;48.152;11.530;2023-07-31T12:51:25;3.75;;;2.47;;
56599;SDS011;51832;48.152;11.530;2023-07-31T12:56:25;2.33;;;1.80;;
56599;SDS011;51832;48.152;11.530;2023-07-31T13:01:26;3.55;;;1.98;;
56599;SDS011;51832;48.152;11.530;2023-07-31T13:06:27;4.05;;;2.00;;
56599;SDS011;51832;48.152;11.530;2023-07-31T13:11:27;3.43;;;1.83;;
56599;SDS011;51832;48.152;11.530;2023-07-31T13:16:27;2.23;;;2.00;;
56599;SDS011;51832;48.152;11.530;2023-07-31T13:21:28;2.30;;;1.90;;
56599;SDS011;51832;48.152;11.530;2023-07-31T13:26:28;2.40;;;1.88;;
56599;SDS011;51832;48.152;11.530;2023-07-31T13:31:29;3.22;;;1.60;;
56599;SDS011;51832;48.152;11.530;2023-07-31T13:36:29;2.00;;;1.60;;
56599;SDS011;51832;48.152;11.530;2023-07-31T13:41:30;4.22;;;1.77;;
56599;SDS011;51832;48.152;11.530;2023-07-31T13:46:30;2.78;;;1.75;;
56599;SDS011;51832;48.152;11.530;2023-07-31T13:51:32;4.93;;;3.00;;
56599;SDS011;51832;48.152;11.530;2023-07-31T13:56:32;3.17;;;1.80;;
56599;SDS011;51832;48.152;11.530;2023-07-31T14:01:33;2.53;;;1.80;;
56599;SDS011;51832;48.152;11.530;2023-07-31T14:06:33;2.30;;;1.40;;
56599;SDS011;51832;48.152;11.530;2023-07-31T14:11:34;2.85;;;1.90;;
56599;SDS011;51832;48.152;11.530;2023-07-31T14:16:34;2.95;;;1.73;;
56599;SDS011;51832;48.152;11.530;2023-07-31T14:21:35;3.67;;;1.80;;
56599;SDS011;51832;48.152;11.530;2023-07-31T14:26:35;3.70;;;2.47;;
56599;SDS011;51832;48.152;11.530;2023-07-31T14:31:36;4.37;;;2.03;;
56599;SDS011;51832;48.152;11.530;2023-07-31T14:36:37;3.45;;;2.08;;
56599;SDS011;51832;48.152;11.530;2023-07-31T14:41:37;2.80;;;2.20;;
56599;SDS011;51832;48.152;11.530;2023-07-31T14:46:37;2.92;;;2.08;;
56599;SDS011;51832;48.152;11.530;2023-07-31T14:51:38;2.95;;;2.20;;
56599;SDS011;51832;48.152;11.530;2023-07-31T14:56:38;4.05;;;2.53;;
56599;SDS011;51832;48.152;11.530;2023-07-31T15:01:39;2.93;;;2.20;;
56599;SDS011;51832;48.152;11.530;2023-07-31T15:06:39;3.00;;;2.20;;
56599;SDS011;51832;48.152;11.530;2023-07-31T15:11:39;2.20;;;2.00;;
56599;SDS011;51832;48.152;11.530;2023-07-31T15:16:40;4.10;;;2.20;;
56599;SDS011;51832;48.152;11.530;2023-07-31T15:21:40;4.70;;;2.57;;
56599;SDS011;51832;48.152;11.530;2023-07-31T15:26:41;3.42;;;2.45;;
56599;SDS011;51832;48.152;11.530;2023-07-31T15:31:44;3.50;;;2.20;;
56599;SDS011;51832;48.152;11.530;2023-07-31T15:36:45;3.85;;;2.25;;
56599;SDS011;51832;48.152;11.530;2023-07-31T15:41:45;7.18;;;3.58;;
56599;SDS011;51832;48.152;11.530;2023-07-31T15:46:46;4.30;;;2.45;;
56599;SDS011;51832;48.152;11.530;2023-07-31T15:51:46;3.57;;;2.43;;
56599;SDS011;51832;48.152;11.530;2023-07-31T15:56:46;4.13;;;2.88;;
56599;SDS011;51832;48.152;11.530;2023-07-31T16:01:47;3.00;;;2.10;;
56599;SDS011;51832;48.152;11.530;2023-07-31T16:06:47;2.47;;;1.80;;
56599;SDS011;51832;48.152;11.530;2023-07-31T16:11:48;4.45;;;2.08;;
56599;SDS011;51832;48.152;11.530;2023-07-31T16:16:50;5.90;;;2.33;;
56599;SDS011;51832;48.152;11.530;2023-07-31T16:21:50;3.93;;;2.20;;
56599;SDS011;51832;48.152;11.530;2023-07-31T16:26:51;2.85;;;2.28;;
56599;SDS011;51832;48.152;11.530;2023-07-31T16:31:51;3.13;;;2.30;;
56599;SDS011;51832;48.152;11.530;2023-07-31T16:36:52;3.40;;;2.10;;
56599;SDS011;51832;48.152;11.530;2023-07-31T16:41:55;2.55;;;2.20;;
56599;SDS011;51832;48.152;11.530;2023-07-31T16:46:55;2.88;;;2.25;;
56599;SDS011;51832;48.152;11.530;2023-07-31T16:51:56;4.70;;;2.53;;
56599;SDS011;51832;48.152;11.530;2023-07-31T16:56:57;4.22;;;2.30;;
56599;SDS011;51832;48.152;11.530;2023-07-31T17:01:57;4.03;;;2.40;;
56599;SDS011;51832;48.152;11.530;2023-07-31T17:06:57;4.17;;;2.20;;
56599;SDS011;51832;48.152;11.530;2023-07-31T17:11:58;3.47;;;2.10;;
56599;SDS011;51832;48.152;11.530;2023-07-31T17:16:59;3.88;;;2.60;;
56599;SDS011;51832;48.152;11.530;2023-07-31T17:21:59;7.07;;;2.97;;
56599;SDS011;51832;48.152;11.530;2023-07-31T17:27:00;2.60;;;2.25;;
56599;SDS011;51832;48.152;11.530;2023-07-31T17:32:00;4.17;;;2.37;;
56599;SDS011;51832;48.152;11.530;2023-07-31T17:37:01;4.27;;;2.40;;
56599;SDS011;51832;48.152;11.530;2023-07-31T17:42:01;5.13;;;2.83;;
56599;SDS011;51832;48.152;11.530;2023-07-31T17:47:02;4.85;;;2.40;;
56599;SDS011;51832;48.152;11.530;2023-07-31T17:52:02;4.18;;;2.58;;
56599;SDS011;51832;48.152;11.530;2023-07-31T17:57:03;3.80;;;2.58;;
56599;SDS011;51832;48.152;11.530;2023-07-31T18:02:04;3.42;;;2.67;;
56599;SDS011;51832;48.152;11.530;2023-07-31T18:07:04;4.63;;;3.10;;
56599;SDS011;51832;48.152;11.530;2023-07-31T18:12:05;4.88;;;2.65;;
56599;SDS011;51832;48.152;11.530;2023-07-31T18:17:06;3.13;;;2.75;;
56599;SDS011;51832;48.152;11.530;2023-07-31T18:22:06;4.68;;;2.60;;
56599;SDS011;51832;48.152;11.530;2023-07-31T18:27:07;4.60;;;2.70;;
56599;SDS011;51832;48.152;11.530;2023-07-31T18:32:07;4.90;;;2.72;;
56599;SDS011;51832;48.152;11.530;2023-07-31T18:37:10;5.95;;;2.67;;
56599;SDS011;51832;48.152;11.530;2023-07-31T18:42:11;4.83;;;2.83;;
56599;SDS011;51832;48.152;11.530;2023-07-31T18:47:12;6.90;;;3.80;;
56599;SDS011;51832;48.152;11.530;2023-07-31T18:52:15;4.60;;;2.53;;
56599;SDS011;51832;48.152;11.530;2023-07-31T18:57:16;3.03;;;2.30;;
56599;SDS011;51832;48.152;11.530;2023-07-31T19:02:16;6.27;;;2.60;;
56599;SDS011;51832;48.152;11.530;2023-07-31T19:07:17;3.95;;;2.28;;
56599;SDS011;51832;48.152;11.530;2023-07-31T19:12:17;3.70;;;2.60;;
56599;SDS011;51832;48.152;11.530;2023-07-31T19:17:17;3.63;;;2.83;;
56599;SDS011;51832;48.152;11.530;2023-07-31T19:22:18;4.10;;;3.10;;
56599;SDS011;51832;48.152;11.530;2023-07-31T19:27:18;6.30;;;3.07;;
56599;SDS011;51832;48.152;11.530;2023-07-31T19:32:18;6.80;;;3.10;;
56599;SDS011;51832;48.152;11.530;2023-07-31T19:37:19;5.40;;;2.80;;
56599;SDS011;51832;48.152;11.530;2023-07-31T19:42:19;3.50;;;2.80;;
56599;SDS011;51832;48.152;11.530;2023-07-31T19:47:20;3.53;;;2.80;;
56599;SDS011;51832;48.152;11.530;2023-07-31T19:52:20;3.70;;;2.70;;
56599;SDS011;51832;48.152;11.530;2023-07-31T19:57:21;4.60;;;3.03;;
56599;SDS011;51832;48.152;11.530;2023-07-31T20:02:21;3.53;;;2.53;;
56599;SDS011;51832;48.152;11.530;2023-07-31T20:07:21;5.18;;;2.92;;
56599;SDS011;51832;48.152;11.530;2023-07-31T20:12:22;3.50;;;2.67;;
56599;SDS011;51832;48.152;11.530;2023-07-31T20:22:27;6.40;;;2.90;;
56599;SDS011;51832;48.152;11.530;2023-07-31T20:27:28;4.47;;;2.78;;
56599;SDS011;51832;48.152;11.530;2023-07-31T20:32:28;4.47;;;2.97;;
56599;SDS011;51832;48.152;11.530;2023-07-31T20:37:28;5.03;;;3.08;;
56599;SDS011;51832;48.152;11.530;2023-07-31T20:42:29;4.90;;;2.73;;
56599;SDS011;51832;48.152;11.530;2023-07-31T20:47:29;4.00;;;2.70;;
56599;SDS011;51832;48.152;11.530;2023-07-31T20:52:30;2.95;;;2.60;;
56599;SDS011;51832;48.152;11.530;2023-07-31T20:57:30;4.80;;;2.67;;
56599;SDS011;51832;48.152;11.530;2023-07-31T21:02:30;6.30;;;3.13;;
56599;SDS011;51832;48.152;11.530;2023-07-31T21:07:31;5.95;;;3.03;;
56599;SDS011;51832;48.152;11.530;2023-07-31T21:12:31;4.90;;;2.92;;
56599;SDS011;51832;48.152;11.530;2023-07-31T21:17:32;4.37;;;3.00;;
56599;SDS011;51832;48.152;11.530;2023-07-31T21:22:32;5.17;;;2.60;;
56599;SDS011;51832;48.152;11.530;2023-07-31T21:27:32;5.20;;;2.85;;
56599;SDS011;51832;48.152;11.530;2023-07-31T21:32:33;4.10;;;2.90;;
56599;SDS011;51832;48.152;11.530;2023-07-31T21:37:33;4.57;;;3.10;;
56599;SDS011;51832;48.152;11.530;2023-07-31T21:42:35;5.28;;;3.10;;
56599;SDS011;51832;48.152;11.530;2023-07-31T21:47:36;5.00;;;2.70;;
56599;SDS011;51832;48.152;11.530;2023-07-31T21:52:37;4.23;;;3.10;;
56599;SDS011;51832;48.152;11.530;2023-07-31T21:57:37;4.28;;;2.55;;
56599;SDS011;51832;48.152;11.530;2023-07-31T22:02:38;4.57;;;2.77;;
56599;SDS011;51832;48.152;11.530;2023-07-31T22:07:38;4.82;;;3.13;;
56599;SDS011;51832;48.152;11.530;2023-07-31T22:12:39;3.88;;;2.88;;
56599;SDS011;51832;48.152;11.530;2023-07-31T22:17:39;4.60;;;2.77;;
56599;SDS011;51832;48.152;11.530;2023-07-31T22:22:40;5.68;;;3.15;;
56599;SDS011;51832;48.152;11.530;2023-07-31T22:27:41;3.10;;;2.80;;
56599;SDS011;51832;48.152;11.530;2023-07-31T22:32:41;4.63;;;2.58;;
56599;SDS011;51832;48.152;11.530;2023-07-31T22:37:41;4.43;;;3.00;;
56599;SDS011;51832;48.152;11.530;2023-07-31T22:42:42;4.35;;;2.45;;
56599;SDS011;51832;48.152;11.530;2023-07-31T22:47:43;5.40;;;2.80;;
56599;SDS011;51832;48.152;11.530;2023-07-31T22:52:43;3.50;;;2.50;;
56599;SDS011;51832;48.152;11.530;2023-07-31T22:57:44;5.15;;;2.50;;
56599;SDS011;51832;48.152;11.530;2023-07-31T23:02:44;3.95;;;2.72;;
56599;SDS011;51832;48.152;11.530;2023-07-31T23:07:44;3.53;;;2.50;;
56599;SDS011;51832;48.152;11.530;2023-07-31T23:12:45;2.90;;;2.37;;
56599;SDS011;51832;48.152;11.530;2023-07-31T23:17:45;4.37;;;2.80;;
56599;SDS011;51832;48.152;11.530;2023-07-31T23:22:46;4.93;;;2.70;;
56599;SDS011;51832;48.152;11.530;2023-07-31T23:27:46;5.07;;;2.87;;
56599;SDS011;51832;48.152;11.530;2023-07-31T23:32:46;4.32;;;2.80;;
56599;SDS011;51832;48.152;11.530;2023-07-31T23:37:47;3.60;;;2.70;;
56599;SDS011;51832;48.152;11.530;2023-07-31T23:42:47;3.33;;;2.17;;
56599;SDS011;51832;48.152;11.530;2023-07-31T23:47:48;3.90;;;2.60;;
56599;SDS011;51832;48.152;11.530;2023-07-31T23:52:49;4.57;;;2.85;;
56599;SDS011;51832;48.152;11.530;2023-07-31T23:57:49;3.22;;;2.45;;
